sensor_id;sensor_type;location;lat;lon;timestamp;P1;durP1;ratioP1;P2;durP2;ratioP2
8482;SDS011;4278;42.668;23.312;2023-01-04T00:01:32;15.53;;;8.50;;
8482;SDS011;4278;42.668;23.312;2023-01-04T00:03:59;16.60;;;8.40;;
8482;SDS011;4278;42.668;23.312;2023-01-04T00:06:26;14.23;;;8.60;;
8482;SDS011;4278;42.668;23.312;2023-01-04T00:08:53;12.73;;;8.47;;
8482;SDS011;4278;42.668;23.312;2023-01-04T00:11:21;11.77;;;7.23;;
8482;SDS011;4278;42.668;23.312;2023-01-04T00:13:48;11.93;;;8.17;;
8482;SDS011;4278;42.668;23.312;2023-01-04T00:16:19;10.03;;;7.37;;
8482;SDS011;4278;42.668;23.312;2023-01-04T00:18:47;11.83;;;7.47;;
8482;SDS011;4278;42.668;23.312;2023-01-04T00:21:15;13.13;;;7.33;;
8482;SDS011;4278;42.668;23.312;2023-01-04T00:23:43;11.83;;;7.70;;
8482;SDS011;4278;42.668;23.312;2023-01-04T00:26:12;10.13;;;7.50;;
8482;SDS011;4278;42.668;23.312;2023-01-04T00:28:40;10.23;;;8.03;;
8482;SDS011;4278;42.668;23.312;2023-01-04T00:31:07;14.27;;;8.00;;
8482;SDS011;4278;42.668;23.312;2023-01-04T00:33:37;12.97;;;7.73;;
8482;SDS011;4278;42.668;23.312;2023-01-04T00:36:05;10.20;;;6.80;;
8482;SDS011;4278;42.668;23.312;2023-01-04T00:38:33;10.63;;;7.60;;
8482;SDS011;4278;42.668;23.312;2023-01-04T00:41:01;10.87;;;7.93;;
8482;SDS011;4278;42.668;23.312;2023-01-04T00:43:29;10.43;;;6.87;;
8482;SDS011;4278;42.668;23.312;2023-01-04T00:45:55;11.97;;;7.53;;
8482;SDS011;4278;42.668;23.312;2023-01-04T00:48:23;11.40;;;7.67;;
8482;SDS011;4278;42.668;23.312;2023-01-04T00:50:51;12.37;;;7.60;;
8482;SDS011;4278;42.668;23.312;2023-01-04T00:53:18;11.70;;;6.63;;
8482;SDS011;4278;42.668;23.312;2023-01-04T00:55:45;12.67;;;8.23;;
8482;SDS011;4278;42.668;23.312;2023-01-04T00:58:12;10.60;;;6.93;;
8482;SDS011;4278;42.668;23.312;2023-01-04T01:00:39;10.50;;;7.33;;
8482;SDS011;4278;42.668;23.312;2023-01-04T01:03:06;12.90;;;7.97;;
8482;SDS011;4278;42.668;23.312;2023-01-04T01:05:33;10.37;;;7.47;;
8482;SDS011;4278;42.668;23.312;2023-01-04T01:08:02;11.07;;;7.57;;
8482;SDS011;4278;42.668;23.312;2023-01-04T01:10:48;11.57;;;7.93;;
8482;SDS011;4278;42.668;23.312;2023-01-04T01:13:16;11.83;;;7.93;;
8482;SDS011;4278;42.668;23.312;2023-01-04T01:15:43;11.47;;;7.30;;
8482;SDS011;4278;42.668;23.312;2023-01-04T01:18:09;13.00;;;7.67;;
8482;SDS011;4278;42.668;23.312;2023-01-04T01:20:39;11.10;;;7.93;;
8482;SDS011;4278;42.668;23.312;2023-01-04T01:23:09;11.50;;;7.87;;
8482;SDS011;4278;42.668;23.312;2023-01-04T01:25:37;11.33;;;7.43;;
8482;SDS011;4278;42.668;23.312;2023-01-04T01:28:04;10.80;;;7.50;;
8482;SDS011;4278;42.668;23.312;2023-01-04T01:30:31;10.50;;;7.73;;
8482;SDS011;4278;42.668;23.312;2023-01-04T01:32:58;11.87;;;7.87;;
8482;SDS011;4278;42.668;23.312;2023-01-04T01:35:25;16.13;;;9.30;;
8482;SDS011;4278;42.668;23.312;2023-01-04T01:37:52;13.37;;;7.53;;
8482;SDS011;4278;42.668;23.312;2023-01-04T01:40:20;13.13;;;8.33;;
8482;SDS011;4278;42.668;23.312;2023-01-04T01:42:47;12.87;;;8.17;;
8482;SDS011;4278;42.668;23.312;2023-01-04T01:45:21;11.20;;;7.80;;
8482;SDS011;4278;42.668;23.312;2023-01-04T01:47:53;17.50;;;9.10;;
8482;SDS011;4278;42.668;23.312;2023-01-04T01:50:25;13.07;;;7.70;;
8482;SDS011;4278;42.668;23.312;2023-01-04T01:52:56;11.13;;;7.57;;
8482;SDS011;4278;42.668;23.312;2023-01-04T01:55:27;12.57;;;7.97;;
8482;SDS011;4278;42.668;23.312;2023-01-04T01:57:55;14.00;;;8.73;;
8482;SDS011;4278;42.668;23.312;2023-01-04T02:00:23;14.07;;;8.83;;
8482;SDS011;4278;42.668;23.312;2023-01-04T02:02:56;12.93;;;9.03;;
8482;SDS011;4278;42.668;23.312;2023-01-04T02:05:32;9.90;;;7.47;;
8482;SDS011;4278;42.668;23.312;2023-01-04T02:08:00;15.27;;;8.47;;
8482;SDS011;4278;42.668;23.312;2023-01-04T02:10:31;11.47;;;8.87;;
8482;SDS011;4278;42.668;23.312;2023-01-04T02:12:58;13.17;;;8.83;;
8482;SDS011;4278;42.668;23.312;2023-01-04T02:15:31;14.77;;;8.83;;
8482;SDS011;4278;42.668;23.312;2023-01-04T02:18:07;14.80;;;9.73;;
8482;SDS011;4278;42.668;23.312;2023-01-04T02:20:41;14.97;;;9.70;;
8482;SDS011;4278;42.668;23.312;2023-01-04T02:29:34;14.83;;;8.83;;
8482;SDS011;4278;42.668;23.312;2023-01-04T02:32:21;14.30;;;8.50;;
8482;SDS011;4278;42.668;23.312;2023-01-04T02:35:02;14.90;;;9.40;;
8482;SDS011;4278;42.668;23.312;2023-01-04T02:37:40;16.77;;;9.37;;
8482;SDS011;4278;42.668;23.312;2023-01-04T02:40:17;17.50;;;10.23;;
8482;SDS011;4278;42.668;23.312;2023-01-04T02:42:50;17.57;;;9.57;;
8482;SDS011;4278;42.668;23.312;2023-01-04T02:45:42;14.33;;;8.93;;
8482;SDS011;4278;42.668;23.312;2023-01-04T02:48:16;15.93;;;10.30;;
8482;SDS011;4278;42.668;23.312;2023-01-04T02:51:00;15.37;;;10.07;;
8482;SDS011;4278;42.668;23.312;2023-01-04T02:53:27;15.27;;;10.50;;
8482;SDS011;4278;42.668;23.312;2023-01-04T02:56:03;17.80;;;9.57;;
8482;SDS011;4278;42.668;23.312;2023-01-04T02:58:50;14.80;;;9.87;;
8482;SDS011;4278;42.668;23.312;2023-01-04T03:01:34;17.20;;;10.27;;
8482;SDS011;4278;42.668;23.312;2023-01-04T03:04:31;17.77;;;10.03;;
8482;SDS011;4278;42.668;23.312;2023-01-04T03:07:24;15.90;;;9.07;;
8482;SDS011;4278;42.668;23.312;2023-01-04T03:09:59;15.33;;;10.27;;
8482;SDS011;4278;42.668;23.312;2023-01-04T03:12:31;18.57;;;10.57;;
8482;SDS011;4278;42.668;23.312;2023-01-04T03:15:05;15.63;;;9.73;;
8482;SDS011;4278;42.668;23.312;2023-01-04T03:17:38;13.67;;;9.17;;
8482;SDS011;4278;42.668;23.312;2023-01-04T03:20:10;17.53;;;9.93;;
8482;SDS011;4278;42.668;23.312;2023-01-04T03:22:39;17.37;;;9.70;;
8482;SDS011;4278;42.668;23.312;2023-01-04T03:25:29;14.10;;;10.10;;
8482;SDS011;4278;42.668;23.312;2023-01-04T03:28:18;15.37;;;9.33;;
8482;SDS011;4278;42.668;23.312;2023-01-04T03:31:07;18.50;;;10.57;;
8482;SDS011;4278;42.668;23.312;2023-01-04T03:34:11;16.93;;;10.07;;
8482;SDS011;4278;42.668;23.312;2023-01-04T03:36:59;20.73;;;9.97;;
8482;SDS011;4278;42.668;23.312;2023-01-04T03:39:42;17.43;;;9.93;;
8482;SDS011;4278;42.668;23.312;2023-01-04T03:42:45;17.27;;;9.97;;
8482;SDS011;4278;42.668;23.312;2023-01-04T03:45:39;22.20;;;11.27;;
8482;SDS011;4278;42.668;23.312;2023-01-04T03:48:28;17.97;;;10.37;;
8482;SDS011;4278;42.668;23.312;2023-01-04T03:51:01;18.17;;;10.90;;
8482;SDS011;4278;42.668;23.312;2023-01-04T03:53:35;18.07;;;10.40;;
8482;SDS011;4278;42.668;23.312;2023-01-04T03:56:06;16.67;;;10.37;;
8482;SDS011;4278;42.668;23.312;2023-01-04T03:58:36;16.40;;;10.23;;
8482;SDS011;4278;42.668;23.312;2023-01-04T04:01:03;18.00;;;10.23;;
8482;SDS011;4278;42.668;23.312;2023-01-04T04:03:31;18.57;;;10.63;;
8482;SDS011;4278;42.668;23.312;2023-01-04T04:06:15;14.57;;;9.70;;
8482;SDS011;4278;42.668;23.312;2023-01-04T04:09:01;15.97;;;9.93;;
8482;SDS011;4278;42.668;23.312;2023-01-04T04:11:29;14.83;;;9.93;;
8482;SDS011;4278;42.668;23.312;2023-01-04T04:13:56;18.93;;;9.57;;
8482;SDS011;4278;42.668;23.312;2023-01-04T04:16:23;21.60;;;10.87;;
8482;SDS011;4278;42.668;23.312;2023-01-04T04:18:50;20.77;;;10.93;;
8482;SDS011;4278;42.668;23.312;2023-01-04T04:21:17;15.67;;;9.80;;
8482;SDS011;4278;42.668;23.312;2023-01-04T04:23:44;16.30;;;9.17;;
8482;SDS011;4278;42.668;23.312;2023-01-04T04:26:12;20.37;;;10.40;;
8482;SDS011;4278;42.668;23.312;2023-01-04T04:28:39;15.10;;;9.67;;
8482;SDS011;4278;42.668;23.312;2023-01-04T04:31:07;15.17;;;10.37;;
8482;SDS011;4278;42.668;23.312;2023-01-04T04:33:34;17.83;;;9.87;;
8482;SDS011;4278;42.668;23.312;2023-01-04T04:36:00;16.10;;;10.63;;
8482;SDS011;4278;42.668;23.312;2023-01-04T04:38:27;18.40;;;9.87;;
8482;SDS011;4278;42.668;23.312;2023-01-04T04:40:54;17.23;;;10.83;;
8482;SDS011;4278;42.668;23.312;2023-01-04T04:43:40;15.53;;;10.33;;
8482;SDS011;4278;42.668;23.312;2023-01-04T04:46:06;19.33;;;10.37;;
8482;SDS011;4278;42.668;23.312;2023-01-04T04:48:33;15.07;;;9.80;;
8482;SDS011;4278;42.668;23.312;2023-01-04T04:51:00;20.10;;;9.70;;
8482;SDS011;4278;42.668;23.312;2023-01-04T04:53:27;15.30;;;10.00;;
8482;SDS011;4278;42.668;23.312;2023-01-04T04:55:54;20.17;;;10.20;;
8482;SDS011;4278;42.668;23.312;2023-01-04T04:58:20;18.97;;;10.17;;
8482;SDS011;4278;42.668;23.312;2023-01-04T05:00:50;16.40;;;10.47;;
8482;SDS011;4278;42.668;23.312;2023-01-04T05:03:16;15.20;;;10.13;;
8482;SDS011;4278;42.668;23.312;2023-01-04T05:05:43;19.90;;;10.87;;
8482;SDS011;4278;42.668;23.312;2023-01-04T05:08:10;17.80;;;10.20;;
8482;SDS011;4278;42.668;23.312;2023-01-04T05:10:37;16.70;;;10.90;;
8482;SDS011;4278;42.668;23.312;2023-01-04T05:13:04;21.20;;;10.37;;
8482;SDS011;4278;42.668;23.312;2023-01-04T05:15:32;18.37;;;11.17;;
8482;SDS011;4278;42.668;23.312;2023-01-04T05:18:02;18.40;;;10.70;;
8482;SDS011;4278;42.668;23.312;2023-01-04T05:20:30;17.60;;;10.70;;
8482;SDS011;4278;42.668;23.312;2023-01-04T05:22:57;17.90;;;11.10;;
8482;SDS011;4278;42.668;23.312;2023-01-04T05:25:24;17.60;;;10.80;;
8482;SDS011;4278;42.668;23.312;2023-01-04T05:27:51;20.37;;;10.57;;
8482;SDS011;4278;42.668;23.312;2023-01-04T05:30:18;18.10;;;11.27;;
8482;SDS011;4278;42.668;23.312;2023-01-04T05:33:04;19.10;;;11.43;;
8482;SDS011;4278;42.668;23.312;2023-01-04T05:35:32;18.57;;;10.80;;
8482;SDS011;4278;42.668;23.312;2023-01-04T05:38:00;16.20;;;10.60;;
8482;SDS011;4278;42.668;23.312;2023-01-04T05:40:29;19.27;;;10.87;;
8482;SDS011;4278;42.668;23.312;2023-01-04T05:42:57;18.53;;;10.27;;
8482;SDS011;4278;42.668;23.312;2023-01-04T05:45:23;24.03;;;11.20;;
8482;SDS011;4278;42.668;23.312;2023-01-04T05:47:51;17.67;;;9.97;;
8482;SDS011;4278;42.668;23.312;2023-01-04T05:50:20;17.93;;;10.10;;
8482;SDS011;4278;42.668;23.312;2023-01-04T05:52:48;23.67;;;11.70;;
8482;SDS011;4278;42.668;23.312;2023-01-04T05:55:15;18.80;;;10.67;;
8482;SDS011;4278;42.668;23.312;2023-01-04T05:57:42;15.57;;;9.57;;
8482;SDS011;4278;42.668;23.312;2023-01-04T06:00:10;16.87;;;10.43;;
8482;SDS011;4278;42.668;23.312;2023-01-04T06:02:38;20.10;;;11.37;;
8482;SDS011;4278;42.668;23.312;2023-01-04T06:05:06;17.57;;;9.63;;
8482;SDS011;4278;42.668;23.312;2023-01-04T06:07:38;15.00;;;9.13;;
8482;SDS011;4278;42.668;23.312;2023-01-04T06:10:06;15.63;;;10.40;;
8482;SDS011;4278;42.668;23.312;2023-01-04T06:12:34;15.93;;;10.60;;
8482;SDS011;4278;42.668;23.312;2023-01-04T06:15:01;14.27;;;9.27;;
8482;SDS011;4278;42.668;23.312;2023-01-04T06:17:29;16.90;;;10.57;;
8482;SDS011;4278;42.668;23.312;2023-01-04T06:19:58;16.80;;;9.33;;
8482;SDS011;4278;42.668;23.312;2023-01-04T06:22:26;14.90;;;9.43;;
8482;SDS011;4278;42.668;23.312;2023-01-04T06:24:55;14.80;;;9.23;;
8482;SDS011;4278;42.668;23.312;2023-01-04T06:27:22;15.27;;;9.00;;
8482;SDS011;4278;42.668;23.312;2023-01-04T06:29:51;17.00;;;9.70;;
8482;SDS011;4278;42.668;23.312;2023-01-04T06:32:19;17.77;;;10.60;;
8482;SDS011;4278;42.668;23.312;2023-01-04T06:34:49;18.57;;;10.30;;
8482;SDS011;4278;42.668;23.312;2023-01-04T06:37:16;15.57;;;9.53;;
8482;SDS011;4278;42.668;23.312;2023-01-04T06:39:43;16.23;;;10.00;;
8482;SDS011;4278;42.668;23.312;2023-01-04T06:42:12;15.80;;;8.53;;
8482;SDS011;4278;42.668;23.312;2023-01-04T06:44:53;15.90;;;9.43;;
8482;SDS011;4278;42.668;23.312;2023-01-04T06:47:20;17.47;;;9.53;;
8482;SDS011;4278;42.668;23.312;2023-01-04T06:49:47;15.20;;;9.80;;
8482;SDS011;4278;42.668;23.312;2023-01-04T06:52:14;14.47;;;8.40;;
8482;SDS011;4278;42.668;23.312;2023-01-04T06:54:41;17.33;;;8.93;;
8482;SDS011;4278;42.668;23.312;2023-01-04T06:57:07;13.77;;;8.97;;
8482;SDS011;4278;42.668;23.312;2023-01-04T06:59:35;19.17;;;8.97;;
8482;SDS011;4278;42.668;23.312;2023-01-04T07:02:03;13.53;;;8.70;;
8482;SDS011;4278;42.668;23.312;2023-01-04T07:04:29;16.03;;;9.07;;
8482;SDS011;4278;42.668;23.312;2023-01-04T07:06:56;15.87;;;8.97;;
8482;SDS011;4278;42.668;23.312;2023-01-04T07:09:23;13.97;;;8.70;;
8482;SDS011;4278;42.668;23.312;2023-01-04T07:11:50;18.43;;;8.80;;
8482;SDS011;4278;42.668;23.312;2023-01-04T07:14:17;15.43;;;9.17;;
8482;SDS011;4278;42.668;23.312;2023-01-04T07:16:47;14.60;;;8.73;;
8482;SDS011;4278;42.668;23.312;2023-01-04T07:19:13;15.27;;;9.37;;
8482;SDS011;4278;42.668;23.312;2023-01-04T07:21:42;15.40;;;9.43;;
8482;SDS011;4278;42.668;23.312;2023-01-04T07:24:09;12.90;;;7.90;;
8482;SDS011;4278;42.668;23.312;2023-01-04T07:26:39;15.43;;;8.67;;
8482;SDS011;4278;42.668;23.312;2023-01-04T07:29:06;17.03;;;9.77;;
8482;SDS011;4278;42.668;23.312;2023-01-04T07:31:42;15.33;;;9.17;;
8482;SDS011;4278;42.668;23.312;2023-01-04T07:34:11;20.00;;;9.77;;
8482;SDS011;4278;42.668;23.312;2023-01-04T07:36:38;15.57;;;8.00;;
8482;SDS011;4278;42.668;23.312;2023-01-04T07:39:06;14.27;;;8.93;;
8482;SDS011;4278;42.668;23.312;2023-01-04T07:41:34;15.97;;;10.07;;
8482;SDS011;4278;42.668;23.312;2023-01-04T07:44:01;16.83;;;9.50;;
8482;SDS011;4278;42.668;23.312;2023-01-04T07:46:28;12.83;;;8.03;;
8482;SDS011;4278;42.668;23.312;2023-01-04T07:48:55;16.93;;;8.93;;
8482;SDS011;4278;42.668;23.312;2023-01-04T07:51:24;16.77;;;10.10;;
8482;SDS011;4278;42.668;23.312;2023-01-04T07:53:51;23.37;;;10.00;;
8482;SDS011;4278;42.668;23.312;2023-01-04T07:56:18;16.03;;;9.33;;
8482;SDS011;4278;42.668;23.312;2023-01-04T07:58:45;12.63;;;8.43;;
8482;SDS011;4278;42.668;23.312;2023-01-04T08:01:12;15.07;;;9.33;;
8482;SDS011;4278;42.668;23.312;2023-01-04T08:03:40;14.90;;;8.87;;
8482;SDS011;4278;42.668;23.312;2023-01-04T08:06:08;17.30;;;9.50;;
8482;SDS011;4278;42.668;23.312;2023-01-04T08:08:37;13.77;;;7.97;;
8482;SDS011;4278;42.668;23.312;2023-01-04T08:11:08;14.53;;;9.27;;
8482;SDS011;4278;42.668;23.312;2023-01-04T08:13:36;11.73;;;8.37;;
8482;SDS011;4278;42.668;23.312;2023-01-04T08:16:03;12.97;;;8.73;;
8482;SDS011;4278;42.668;23.312;2023-01-04T08:18:30;12.70;;;7.77;;
8482;SDS011;4278;42.668;23.312;2023-01-04T08:21:00;13.60;;;7.87;;
8482;SDS011;4278;42.668;23.312;2023-01-04T08:23:29;17.67;;;10.33;;
8482;SDS011;4278;42.668;23.312;2023-01-04T08:26:01;13.60;;;8.47;;
8482;SDS011;4278;42.668;23.312;2023-01-04T08:28:29;13.97;;;7.77;;
8482;SDS011;4278;42.668;23.312;2023-01-04T08:30:56;13.77;;;8.83;;
8482;SDS011;4278;42.668;23.312;2023-01-04T08:33:28;15.20;;;9.40;;
8482;SDS011;4278;42.668;23.312;2023-01-04T08:36:05;11.97;;;8.50;;
8482;SDS011;4278;42.668;23.312;2023-01-04T08:38:41;14.67;;;8.67;;
8482;SDS011;4278;42.668;23.312;2023-01-04T08:41:10;16.87;;;8.97;;
8482;SDS011;4278;42.668;23.312;2023-01-04T08:43:37;15.23;;;9.20;;
8482;SDS011;4278;42.668;23.312;2023-01-04T08:46:04;17.93;;;9.57;;
8482;SDS011;4278;42.668;23.312;2023-01-04T08:48:31;15.50;;;10.00;;
8482;SDS011;4278;42.668;23.312;2023-01-04T08:50:59;14.53;;;9.50;;
8482;SDS011;4278;42.668;23.312;2023-01-04T08:53:26;16.33;;;9.60;;
8482;SDS011;4278;42.668;23.312;2023-01-04T08:55:53;15.10;;;9.13;;
8482;SDS011;4278;42.668;23.312;2023-01-04T08:58:24;14.30;;;8.67;;
8482;SDS011;4278;42.668;23.312;2023-01-04T09:00:51;13.87;;;8.33;;
8482;SDS011;4278;42.668;23.312;2023-01-04T09:03:20;18.10;;;10.00;;
8482;SDS011;4278;42.668;23.312;2023-01-04T09:05:47;14.33;;;9.70;;
8482;SDS011;4278;42.668;23.312;2023-01-04T09:08:14;15.23;;;9.73;;
8482;SDS011;4278;42.668;23.312;2023-01-04T09:10:44;14.17;;;9.27;;
8482;SDS011;4278;42.668;23.312;2023-01-04T09:13:15;13.23;;;8.90;;
8482;SDS011;4278;42.668;23.312;2023-01-04T09:15:45;14.07;;;8.80;;
8482;SDS011;4278;42.668;23.312;2023-01-04T09:18:12;14.93;;;9.87;;
8482;SDS011;4278;42.668;23.312;2023-01-04T09:20:39;18.00;;;10.60;;
8482;SDS011;4278;42.668;23.312;2023-01-04T09:23:06;14.53;;;9.37;;
8482;SDS011;4278;42.668;23.312;2023-01-04T09:25:33;14.87;;;9.70;;
8482;SDS011;4278;42.668;23.312;2023-01-04T09:28:00;14.47;;;9.23;;
8482;SDS011;4278;42.668;23.312;2023-01-04T09:30:26;17.27;;;8.60;;
8482;SDS011;4278;42.668;23.312;2023-01-04T09:32:57;14.40;;;9.20;;
8482;SDS011;4278;42.668;23.312;2023-01-04T09:35:26;14.70;;;8.87;;
8482;SDS011;4278;42.668;23.312;2023-01-04T09:37:53;18.10;;;8.87;;
8482;SDS011;4278;42.668;23.312;2023-01-04T09:40:21;16.03;;;9.27;;
8482;SDS011;4278;42.668;23.312;2023-01-04T09:42:52;15.47;;;8.30;;
8482;SDS011;4278;42.668;23.312;2023-01-04T09:45:21;15.97;;;8.67;;
8482;SDS011;4278;42.668;23.312;2023-01-04T09:47:52;12.33;;;8.27;;
8482;SDS011;4278;42.668;23.312;2023-01-04T09:50:27;13.23;;;8.50;;
8482;SDS011;4278;42.668;23.312;2023-01-04T09:53:00;13.50;;;8.23;;
8482;SDS011;4278;42.668;23.312;2023-01-04T09:55:30;14.13;;;8.57;;
8482;SDS011;4278;42.668;23.312;2023-01-04T09:58:02;13.40;;;8.20;;
8482;SDS011;4278;42.668;23.312;2023-01-04T10:00:34;14.50;;;8.73;;
8482;SDS011;4278;42.668;23.312;2023-01-04T10:03:09;11.83;;;8.23;;
8482;SDS011;4278;42.668;23.312;2023-01-04T10:05:42;15.00;;;9.00;;
8482;SDS011;4278;42.668;23.312;2023-01-04T10:08:11;14.77;;;9.13;;
8482;SDS011;4278;42.668;23.312;2023-01-04T10:10:52;13.03;;;8.43;;
8482;SDS011;4278;42.668;23.312;2023-01-04T10:13:35;14.70;;;8.53;;
8482;SDS011;4278;42.668;23.312;2023-01-04T10:16:15;17.40;;;7.77;;
8482;SDS011;4278;42.668;23.312;2023-01-04T10:18:51;16.13;;;8.90;;
8482;SDS011;4278;42.668;23.312;2023-01-04T10:21:25;16.07;;;9.17;;
8482;SDS011;4278;42.668;23.312;2023-01-04T10:26:55;14.87;;;8.77;;
8482;SDS011;4278;42.668;23.312;2023-01-04T10:29:35;16.23;;;8.90;;
8482;SDS011;4278;42.668;23.312;2023-01-04T10:32:10;13.90;;;8.43;;
8482;SDS011;4278;42.668;23.312;2023-01-04T10:34:44;15.07;;;9.83;;
8482;SDS011;4278;42.668;23.312;2023-01-04T10:37:12;15.20;;;9.60;;
8482;SDS011;4278;42.668;23.312;2023-01-04T10:39:42;15.93;;;10.17;;
8482;SDS011;4278;42.668;23.312;2023-01-04T10:42:13;15.07;;;9.17;;
8482;SDS011;4278;42.668;23.312;2023-01-04T10:44:50;17.90;;;9.47;;
8482;SDS011;4278;42.668;23.312;2023-01-04T10:47:25;16.60;;;9.57;;
8482;SDS011;4278;42.668;23.312;2023-01-04T10:49:58;16.17;;;8.60;;
8482;SDS011;4278;42.668;23.312;2023-01-04T10:52:30;13.43;;;9.63;;
8482;SDS011;4278;42.668;23.312;2023-01-04T10:55:03;14.20;;;8.43;;
8482;SDS011;4278;42.668;23.312;2023-01-04T10:57:35;15.17;;;9.03;;
8482;SDS011;4278;42.668;23.312;2023-01-04T11:00:06;18.57;;;10.17;;
8482;SDS011;4278;42.668;23.312;2023-01-04T11:02:39;14.13;;;10.17;;
8482;SDS011;4278;42.668;23.312;2023-01-04T11:05:15;16.87;;;9.33;;
8482;SDS011;4278;42.668;23.312;2023-01-04T11:07:48;17.27;;;10.20;;
8482;SDS011;4278;42.668;23.312;2023-01-04T11:10:20;18.23;;;10.10;;
8482;SDS011;4278;42.668;23.312;2023-01-04T11:12:51;17.40;;;9.97;;
8482;SDS011;4278;42.668;23.312;2023-01-04T11:15:19;17.57;;;10.60;;
8482;SDS011;4278;42.668;23.312;2023-01-04T11:17:45;16.50;;;9.40;;
8482;SDS011;4278;42.668;23.312;2023-01-04T11:20:15;16.23;;;10.03;;
8482;SDS011;4278;42.668;23.312;2023-01-04T11:22:43;16.60;;;9.03;;
8482;SDS011;4278;42.668;23.312;2023-01-04T11:25:18;17.43;;;8.40;;
8482;SDS011;4278;42.668;23.312;2023-01-04T11:27:49;15.87;;;8.90;;
8482;SDS011;4278;42.668;23.312;2023-01-04T11:30:23;15.10;;;9.10;;
8482;SDS011;4278;42.668;23.312;2023-01-04T11:33:13;14.87;;;7.63;;
8482;SDS011;4278;42.668;23.312;2023-01-04T11:35:44;12.53;;;8.20;;
8482;SDS011;4278;42.668;23.312;2023-01-04T11:38:13;13.80;;;9.13;;
8482;SDS011;4278;42.668;23.312;2023-01-04T11:40:44;12.63;;;8.57;;
8482;SDS011;4278;42.668;23.312;2023-01-04T11:43:21;11.60;;;8.07;;
8482;SDS011;4278;42.668;23.312;2023-01-04T11:45:56;13.10;;;9.10;;
8482;SDS011;4278;42.668;23.312;2023-01-04T11:48:32;13.17;;;7.97;;
8482;SDS011;4278;42.668;23.312;2023-01-04T11:51:04;13.97;;;7.00;;
8482;SDS011;4278;42.668;23.312;2023-01-04T11:53:40;15.20;;;7.83;;
8482;SDS011;4278;42.668;23.312;2023-01-04T11:56:17;13.50;;;8.07;;
8482;SDS011;4278;42.668;23.312;2023-01-04T11:59:03;11.97;;;7.57;;
8482;SDS011;4278;42.668;23.312;2023-01-04T12:01:41;13.67;;;8.37;;
8482;SDS011;4278;42.668;23.312;2023-01-04T12:04:10;10.83;;;7.27;;
8482;SDS011;4278;42.668;23.312;2023-01-04T12:06:42;12.10;;;7.37;;
8482;SDS011;4278;42.668;23.312;2023-01-04T12:09:15;14.33;;;7.03;;
8482;SDS011;4278;42.668;23.312;2023-01-04T12:11:45;12.83;;;8.77;;
8482;SDS011;4278;42.668;23.312;2023-01-04T12:14:17;11.73;;;7.50;;
8482;SDS011;4278;42.668;23.312;2023-01-04T12:16:47;11.60;;;7.47;;
8482;SDS011;4278;42.668;23.312;2023-01-04T12:19:20;11.03;;;8.10;;
8482;SDS011;4278;42.668;23.312;2023-01-04T12:21:50;14.07;;;8.20;;
8482;SDS011;4278;42.668;23.312;2023-01-04T12:24:21;10.37;;;7.10;;
8482;SDS011;4278;42.668;23.312;2023-01-04T12:26:50;12.73;;;8.07;;
8482;SDS011;4278;42.668;23.312;2023-01-04T12:29:31;11.17;;;7.53;;
8482;SDS011;4278;42.668;23.312;2023-01-04T12:45:02;13.30;;;8.00;;
8482;SDS011;4278;42.668;23.312;2023-01-04T12:47:40;11.37;;;7.63;;
8482;SDS011;4278;42.668;23.312;2023-01-04T12:50:24;12.40;;;7.80;;
8482;SDS011;4278;42.668;23.312;2023-01-04T12:52:54;13.07;;;7.60;;
8482;SDS011;4278;42.668;23.312;2023-01-04T12:58:39;10.77;;;7.27;;
8482;SDS011;4278;42.668;23.312;2023-01-04T13:01:30;12.60;;;7.67;;
8482;SDS011;4278;42.668;23.312;2023-01-04T13:03:57;12.67;;;7.37;;
8482;SDS011;4278;42.668;23.312;2023-01-04T13:06:27;14.83;;;7.87;;
8482;SDS011;4278;42.668;23.312;2023-01-04T13:08:57;14.53;;;7.83;;
8482;SDS011;4278;42.668;23.312;2023-01-04T13:11:32;11.80;;;7.73;;
8482;SDS011;4278;42.668;23.312;2023-01-04T13:14:13;12.03;;;7.57;;
8482;SDS011;4278;42.668;23.312;2023-01-04T13:16:54;12.27;;;8.03;;
8482;SDS011;4278;42.668;23.312;2023-01-04T13:19:34;12.93;;;7.70;;
8482;SDS011;4278;42.668;23.312;2023-01-04T13:22:08;11.00;;;7.43;;
8482;SDS011;4278;42.668;23.312;2023-01-04T13:24:41;12.53;;;7.73;;
8482;SDS011;4278;42.668;23.312;2023-01-04T13:27:12;14.10;;;8.27;;
8482;SDS011;4278;42.668;23.312;2023-01-04T13:29:44;13.73;;;8.30;;
8482;SDS011;4278;42.668;23.312;2023-01-04T13:32:11;13.17;;;9.10;;
8482;SDS011;4278;42.668;23.312;2023-01-04T13:34:43;15.43;;;9.27;;
8482;SDS011;4278;42.668;23.312;2023-01-04T13:37:18;15.43;;;9.47;;
8482;SDS011;4278;42.668;23.312;2023-01-04T13:40:01;18.97;;;10.07;;
8482;SDS011;4278;42.668;23.312;2023-01-04T13:42:44;16.00;;;9.27;;
8482;SDS011;4278;42.668;23.312;2023-01-04T13:45:31;15.60;;;9.57;;
8482;SDS011;4278;42.668;23.312;2023-01-04T13:48:16;18.27;;;10.07;;
8482;SDS011;4278;42.668;23.312;2023-01-04T13:50:57;18.23;;;10.37;;
8482;SDS011;4278;42.668;23.312;2023-01-04T13:53:26;16.53;;;10.60;;
8482;SDS011;4278;42.668;23.312;2023-01-04T13:55:55;18.93;;;10.10;;
8482;SDS011;4278;42.668;23.312;2023-01-04T13:58:24;17.57;;;10.23;;
8482;SDS011;4278;42.668;23.312;2023-01-04T14:00:54;17.17;;;9.47;;
8482;SDS011;4278;42.668;23.312;2023-01-04T14:03:24;18.03;;;9.63;;
8482;SDS011;4278;42.668;23.312;2023-01-04T14:05:57;17.83;;;11.10;;
8482;SDS011;4278;42.668;23.312;2023-01-04T14:08:38;19.17;;;9.47;;
8482;SDS011;4278;42.668;23.312;2023-01-04T14:11:15;20.77;;;10.17;;
8482;SDS011;4278;42.668;23.312;2023-01-04T14:14:15;17.33;;;10.23;;
8482;SDS011;4278;42.668;23.312;2023-01-04T14:16:47;18.20;;;11.67;;
8482;SDS011;4278;42.668;23.312;2023-01-04T14:19:38;21.97;;;11.20;;
8482;SDS011;4278;42.668;23.312;2023-01-04T14:22:22;17.63;;;10.60;;
8482;SDS011;4278;42.668;23.312;2023-01-04T14:24:54;16.73;;;10.30;;
8482;SDS011;4278;42.668;23.312;2023-01-04T14:27:28;17.27;;;11.13;;
8482;SDS011;4278;42.668;23.312;2023-01-04T14:29:56;18.83;;;11.13;;
8482;SDS011;4278;42.668;23.312;2023-01-04T14:32:25;16.90;;;10.73;;
8482;SDS011;4278;42.668;23.312;2023-01-04T14:34:52;16.60;;;10.33;;
8482;SDS011;4278;42.668;23.312;2023-01-04T14:37:19;15.57;;;9.37;;
8482;SDS011;4278;42.668;23.312;2023-01-04T14:39:46;20.93;;;10.73;;
8482;SDS011;4278;42.668;23.312;2023-01-04T14:42:23;17.43;;;8.97;;
8482;SDS011;4278;42.668;23.312;2023-01-04T14:44:50;18.80;;;10.30;;
8482;SDS011;4278;42.668;23.312;2023-01-04T14:47:18;18.43;;;10.77;;
8482;SDS011;4278;42.668;23.312;2023-01-04T14:49:46;16.43;;;9.57;;
8482;SDS011;4278;42.668;23.312;2023-01-04T14:52:17;15.90;;;10.50;;
8482;SDS011;4278;42.668;23.312;2023-01-04T14:54:47;20.27;;;11.87;;
8482;SDS011;4278;42.668;23.312;2023-01-04T14:57:14;19.40;;;10.50;;
8482;SDS011;4278;42.668;23.312;2023-01-04T14:59:41;23.23;;;10.60;;
8482;SDS011;4278;42.668;23.312;2023-01-04T15:02:10;19.70;;;9.77;;
8482;SDS011;4278;42.668;23.312;2023-01-04T15:04:37;17.70;;;10.20;;
8482;SDS011;4278;42.668;23.312;2023-01-04T15:10:01;21.50;;;10.37;;
8482;SDS011;4278;42.668;23.312;2023-01-04T15:12:29;21.53;;;11.40;;
8482;SDS011;4278;42.668;23.312;2023-01-04T15:14:56;16.30;;;10.67;;
8482;SDS011;4278;42.668;23.312;2023-01-04T15:17:23;21.40;;;11.63;;
8482;SDS011;4278;42.668;23.312;2023-01-04T15:19:50;19.73;;;10.80;;
8482;SDS011;4278;42.668;23.312;2023-01-04T15:22:16;23.40;;;10.87;;
8482;SDS011;4278;42.668;23.312;2023-01-04T15:24:44;16.27;;;10.90;;
8482;SDS011;4278;42.668;23.312;2023-01-04T15:27:12;18.07;;;11.47;;
8482;SDS011;4278;42.668;23.312;2023-01-04T15:29:39;17.97;;;10.70;;
8482;SDS011;4278;42.668;23.312;2023-01-04T15:32:06;18.37;;;10.80;;
8482;SDS011;4278;42.668;23.312;2023-01-04T15:34:33;19.60;;;11.17;;
8482;SDS011;4278;42.668;23.312;2023-01-04T15:37:00;20.23;;;11.60;;